Time;durP1;ratioP1;P1;durP2;ratioP2;P2;SDS_P1;SDS_P2;PMS_P1;PMS_P2;Temp;Humidity;BMP_temperature;BMP_pressure;BME280_temperature;BME280_humidity;BME280_pressure;Samples;Min_cycle;Max_cycle;Signal;HPM_P1;HPM_P2
2021/12/15 00:00:50;;;;;;;2.40;1.40;;;20.50;27.90;20.90;94936.00;;;;10301255;28;46612;-67
2021/12/15 00:05:51;;;;;;;2.35;1.55;;;20.50;27.90;20.90;94930.00;;;;10300806;28;48092;-67
2021/12/15 00:10:52;;;;;;;2.53;1.48;;;20.50;27.80;20.90;94941.00;;;;10317279;28;45461;-67
2021/12/15 00:15:52;;;;;;;1.67;1.30;;;20.40;27.80;20.90;94950.00;;;;10317202;28;45166;-67
2021/12/15 00:20:53;;;;;;;1.90;1.10;;;20.50;27.80;20.90;94936.00;;;;10316487;28;48109;-66
2021/12/15 00:25:54;;;;;;;1.95;1.40;;;20.40;27.80;20.90;94947.00;;;;10333069;28;45304;-66
2021/12/15 00:30:55;;;;;;;1.75;1.10;;;20.40;27.80;20.90;94955.00;;;;10317698;28;45438;-66
2021/12/15 00:35:55;;;;;;;1.65;1.20;;;20.40;27.80;20.90;94942.00;;;;10317479;28;45515;-65
2021/12/15 00:40:56;;;;;;;2.47;1.33;;;20.40;27.80;20.90;94952.00;;;;10332799;28;45476;-66
2021/12/15 00:45:57;;;;;;;2.58;1.38;;;20.40;27.80;20.90;94949.00;;;;10332166;28;45388;-66
2021/12/15 00:50:58;;;;;;;1.38;1.05;;;20.40;27.80;20.80;94938.00;;;;10332323;28;45202;-66
2021/12/15 00:55:59;;;;;;;2.15;1.40;;;20.40;27.80;20.80;94951.00;;;;10332266;28;45558;-67
2021/12/15 01:01:03;;;;;;;1.95;1.00;;;20.40;27.80;20.80;94950.00;;;;10316658;28;45330;-66
2021/12/15 01:06:18;;;;;;;1.10;1.00;;;20.40;27.80;20.80;94954.00;;;;10315436;28;45172;-66
2021/12/15 01:11:32;;;;;;;1.73;1.20;;;20.40;27.80;20.80;94946.00;;;;10331338;28;45431;-67
2021/12/15 01:22:00;;;;;;;1.05;0.80;;;20.40;27.80;20.80;94935.00;;;;10315569;28;45659;-66
2021/12/15 01:27:00;;;;;;;1.42;0.90;;;20.40;27.80;20.80;94928.00;;;;10330818;28;45385;-66
2021/12/15 01:32:03;;;;;;;1.30;0.90;;;20.40;27.90;20.80;94954.00;;;;10331307;28;45424;-66
2021/12/15 01:37:05;;;;;;;1.40;0.80;;;20.30;27.80;20.80;94958.00;;;;10314823;28;47224;-66
2021/12/15 01:42:07;;;;;;;0.93;0.73;;;20.30;27.80;20.80;94960.00;;;;10331023;28;45335;-66
2021/12/15 01:47:07;;;;;;;1.00;0.80;;;20.30;27.80;20.80;94951.00;;;;10330158;28;46122;-67
2021/12/15 01:52:27;;;;;;;1.63;0.95;;;20.30;27.80;20.80;94954.00;;;;10313809;28;46908;-67
2021/12/15 01:57:33;;;;;;;1.45;0.70;;;20.40;27.80;20.80;94958.00;;;;10329234;28;45705;-66
2021/12/15 02:02:34;;;;;;;0.47;0.47;;;20.30;27.80;20.80;94945.00;;;;10308049;28;47333;-67
2021/12/15 02:07:36;;;;;;;1.27;0.70;;;20.30;27.80;20.80;94956.00;;;;10328696;28;45513;-66
2021/12/15 02:12:42;;;;;;;1.20;0.90;;;20.30;27.90;20.80;94968.00;;;;10329872;28;45215;-66
2021/12/15 02:17:44;;;;;;;1.03;0.60;;;20.30;27.90;20.80;94971.00;;;;10296476;28;47191;-66
2021/12/15 02:22:46;;;;;;;1.05;0.70;;;20.30;28.00;20.80;94951.00;;;;10313477;28;46642;-66
2021/12/15 02:27:46;;;;;;;0.57;0.55;;;20.30;28.00;20.80;94972.00;;;;10312641;28;47057;-67
2021/12/15 02:38:00;;;;;;;0.70;0.70;;;20.30;28.00;20.80;94951.00;;;;10312400;28;45389;-66
2021/12/15 02:43:01;;;;;;;1.00;0.70;;;20.30;28.10;20.80;94974.00;;;;10313761;28;46299;-66
2021/12/15 02:48:03;;;;;;;1.02;0.60;;;20.30;28.10;20.70;94972.00;;;;10295841;28;47112;-66
2021/12/15 02:53:04;;;;;;;1.02;0.77;;;20.30;28.10;20.80;94991.00;;;;10312085;28;45485;-66
2021/12/15 02:58:06;;;;;;;1.23;0.80;;;20.30;28.10;20.80;94996.00;;;;10295122;28;46986;-66
2021/12/15 03:08:36;;;;;;;1.17;0.80;;;20.30;28.10;20.80;94980.00;;;;10313072;28;45138;-66
2021/12/15 03:18:58;;;;;;;1.08;0.65;;;20.30;28.10;20.70;94983.00;;;;10319104;28;45710;-65
2021/12/15 03:24:07;;;;;;;1.00;0.88;;;20.30;28.20;20.80;95005.00;;;;10302429;28;48400;-66
2021/12/15 03:34:41;;;;;;;1.27;0.80;;;20.30;28.20;20.70;95000.00;;;;10319138;28;45178;-66
2021/12/15 03:39:45;;;;;;;1.15;0.88;;;20.30;28.20;20.70;94979.00;;;;10318115;28;45488;-67
2021/12/15 03:44:47;;;;;;;1.33;0.90;;;20.30;28.20;20.70;94977.00;;;;10301806;28;48048;-66
2021/12/15 03:49:51;;;;;;;1.10;0.90;;;20.30;28.20;20.80;94998.00;;;;10301135;28;47973;-66
2021/12/15 03:54:52;;;;;;;1.15;0.95;;;20.30;28.20;20.70;94990.00;;;;10301272;28;46998;-67
2021/12/15 03:59:56;;;;;;;1.17;0.90;;;20.30;28.20;20.70;95000.00;;;;10317214;28;46585;-67
2021/12/15 04:04:57;;;;;;;0.98;0.70;;;20.30;28.20;20.70;95011.00;;;;10316614;28;47511;-66
2021/12/15 04:09:58;;;;;;;0.80;0.70;;;20.30;28.20;20.70;95013.00;;;;10317352;28;45261;-66
2021/12/15 04:15:27;;;;;;;1.17;1.00;;;20.20;28.20;20.70;94996.00;;;;10317121;28;46520;-66
2021/12/15 04:20:25;;;;;;;1.00;0.80;;;20.20;28.20;20.70;94999.00;;;;10329533;28;45425;-66
2021/12/15 04:25:31;;;;;;;1.67;0.80;;;20.20;28.10;20.70;95008.00;;;;10316924;28;45420;-67
2021/12/15 04:30:38;;;;;;;1.02;0.80;;;20.20;28.20;20.60;94992.00;;;;10333525;28;45416;-66
2021/12/15 04:35:41;;;;;;;1.33;0.90;;;20.20;28.20;20.70;94998.00;;;;10316386;28;47963;-66
2021/12/15 04:40:42;;;;;;;1.33;0.88;;;20.20;28.20;20.70;94996.00;;;;10332658;28;45166;-66
2021/12/15 04:45:44;;;;;;;1.02;0.80;;;20.20;28.20;20.70;95000.00;;;;10332181;28;45195;-66
2021/12/15 04:50:44;;;;;;;1.13;0.85;;;20.20;28.20;20.60;94995.00;;;;10332453;28;45202;-66
2021/12/15 04:55:45;;;;;;;1.00;0.80;;;20.20;28.20;20.70;94996.00;;;;10316896;28;45274;-66
2021/12/15 05:00:53;;;;;;;2.22;0.80;;;20.20;28.10;20.60;94988.00;;;;10315594;28;47051;-66
2021/12/15 05:05:54;;;;;;;1.40;0.70;;;20.20;28.20;20.70;95000.00;;;;10314467;28;47193;-66
2021/12/15 05:10:56;;;;;;;1.42;0.80;;;20.20;28.20;20.70;94981.00;;;;10315034;28;46858;-66
2021/12/15 05:15:58;;;;;;;1.15;0.80;;;20.20;28.10;20.70;95001.00;;;;10314960;28;47958;-65
2021/12/15 05:21:00;;;;;;;0.70;0.63;;;20.20;28.10;20.80;94997.00;;;;10297906;28;47876;-65
2021/12/15 05:26:01;;;;;;;0.90;0.60;;;20.30;28.10;20.80;95018.00;;;;10314444;28;46789;-66
2021/12/15 05:31:02;;;;;;;0.95;0.70;;;20.30;28.10;20.80;95015.00;;;;10296776;28;48223;-66
2021/12/15 05:36:04;;;;;;;0.80;0.70;;;20.30;28.10;20.80;95006.00;;;;10315558;28;45968;-67
2021/12/15 05:41:05;;;;;;;0.95;0.80;;;20.40;28.10;20.80;95011.00;;;;10314478;28;45231;-65
2021/12/15 05:46:05;;;;;;;1.05;0.80;;;20.30;28.10;20.90;95011.00;;;;10297710;28;47016;-66
2021/12/15 05:51:06;;;;;;;0.82;0.70;;;20.40;28.10;20.90;95014.00;;;;10314114;28;45567;-65
2021/12/15 05:56:07;;;;;;;0.80;0.70;;;20.40;28.00;20.90;94998.00;;;;10313791;28;46828;-66
2021/12/15 06:01:08;;;;;;;1.15;0.65;;;20.40;28.00;20.90;95025.00;;;;10314052;28;45441;-66
2021/12/15 06:06:08;;;;;;;0.75;0.60;;;20.40;28.00;20.90;95005.00;;;;10313147;28;47124;-66
2021/12/15 06:11:09;;;;;;;1.10;0.60;;;20.40;28.00;20.90;95017.00;;;;10313703;28;45439;-66
2021/12/15 06:16:10;;;;;;;0.80;0.70;;;20.30;28.50;21.00;95028.00;;;;10296455;28;47022;-66
2021/12/15 06:21:11;;;;;;;0.63;0.63;;;20.50;28.00;21.00;95029.00;;;;10313377;28;45163;-67
2021/12/15 06:26:12;;;;;;;0.80;0.50;;;20.50;28.00;21.00;95034.00;;;;10296476;28;46865;-66
2021/12/15 06:31:15;;;;;;;0.73;0.60;;;20.50;28.10;21.00;95046.00;;;;10312970;28;48223;-67
2021/12/15 06:36:20;;;;;;;0.57;0.50;;;20.50;28.10;21.00;95062.00;;;;10311872;28;45182;-66
2021/12/15 06:41:23;;;;;;;0.75;0.65;;;20.50;28.20;21.10;95061.00;;;;10296719;28;47039;-66
2021/12/15 07:02:07;;;;;;;0.50;0.50;;;20.60;28.50;21.10;95082.00;;;;10312836;28;45422;-67
2021/12/15 07:07:08;;;;;;;0.85;0.68;;;20.60;28.60;21.10;95084.00;;;;10311690;28;45281;-67
2021/12/15 07:12:10;;;;;;;0.63;0.50;;;20.60;28.60;21.10;95073.00;;;;10311836;28;46664;-67
2021/12/15 07:17:18;;;;;;;0.90;0.50;;;20.60;28.60;21.10;95069.00;;;;10311638;28;46375;-67
2021/12/15 07:27:29;;;;;;;0.82;0.60;;;20.60;28.60;21.10;95075.00;;;;10311271;28;45194;-67
2021/12/15 07:32:29;;;;;;;0.95;0.40;;;20.60;28.70;21.20;95076.00;;;;10311374;28;45357;-67
2021/12/15 07:37:32;;;;;;;0.95;0.50;;;20.70;28.90;21.20;95069.00;;;;10294421;28;47186;-67
2021/12/15 07:42:37;;;;;;;3.20;0.65;;;20.70;29.10;21.20;95068.00;;;;10207955;28;46934;-67
2021/12/15 07:47:38;;;;;;;1.33;0.60;;;20.70;29.20;21.20;95076.00;;;;10271257;28;45204;-67
2021/12/15 07:52:38;;;;;;;0.82;0.50;;;20.70;29.80;21.10;95073.00;;;;10285967;28;47115;-65
2021/12/15 07:57:39;;;;;;;1.80;0.40;;;20.70;29.90;21.10;95073.00;;;;10291907;28;48054;-66
2021/12/15 08:02:40;;;;;;;1.00;0.50;;;20.60;30.30;21.10;95084.00;;;;10293545;28;47220;-66
2021/12/15 08:07:42;;;;;;;0.70;0.52;;;20.60;30.70;21.10;95086.00;;;;10292220;28;47083;-67
2021/12/15 08:12:44;;;;;;;0.63;0.40;;;20.60;31.20;21.10;95082.00;;;;10276761;28;45200;-66
2021/12/15 08:17:51;;;;;;;2.17;0.80;;;20.60;31.30;21.10;95091.00;;;;10260053;28;47113;-67
2021/12/15 08:22:52;;;;;;;1.77;0.50;;;20.70;31.60;21.10;95087.00;;;;10276747;28;45485;-67
2021/12/15 08:27:54;;;;;;;1.55;0.68;;;20.60;31.80;21.20;95074.00;;;;10275780;28;45647;-66
2021/12/15 08:33:00;;;;;;;0.90;0.52;;;20.70;32.00;21.20;95078.00;;;;10292407;28;46905;-67
2021/12/15 08:38:01;;;;;;;1.35;0.47;;;20.70;32.10;21.20;95087.00;;;;10291647;28;47617;-66
2021/12/15 08:43:06;;;;;;;0.98;0.52;;;20.70;32.20;21.20;95100.00;;;;10276021;28;45202;-67
2021/12/15 08:48:09;;;;;;;0.63;0.50;;;20.70;32.40;21.20;95109.00;;;;10291530;28;47107;-66
2021/12/15 08:53:11;;;;;;;1.13;0.45;;;20.70;32.40;21.20;95103.00;;;;10275689;28;47076;-66
2021/12/15 08:58:15;;;;;;;1.05;0.60;;;20.70;32.50;21.20;95116.00;;;;10291386;28;47119;-66
2021/12/15 09:03:18;;;;;;;0.95;0.65;;;20.70;32.60;21.20;95122.00;;;;10275004;28;46296;-66
2021/12/15 09:08:20;;;;;;;0.65;0.45;;;20.70;32.60;21.20;95126.00;;;;10272129;28;45247;-67
2021/12/15 09:13:24;;;;;;;1.98;0.40;;;20.70;32.60;21.20;95118.00;;;;10274530;28;45207;-66
2021/12/15 09:18:24;;;;;;;0.68;0.40;;;20.70;32.60;21.20;95118.00;;;;10274059;28;45476;-66
2021/12/15 09:23:26;;;;;;;0.70;0.50;;;20.70;32.50;21.20;95120.00;;;;10290669;28;47451;-66
2021/12/15 09:28:29;;;;;;;1.00;0.50;;;20.70;32.50;21.20;95111.00;;;;10273874;28;46543;-66
2021/12/15 09:33:33;;;;;;;1.58;0.63;;;20.70;32.50;21.20;95109.00;;;;10290370;28;46897;-66
2021/12/15 09:38:34;;;;;;;1.00;0.60;;;20.80;32.60;21.20;95118.00;;;;10273004;28;47115;-65
2021/12/15 09:43:36;;;;;;;0.90;0.50;;;20.70;32.70;21.20;95110.00;;;;10273303;28;47991;-66
2021/12/15 10:20:38;;;;;;;2.47;0.60;;;20.70;32.50;21.30;95083.00;;;;10272161;28;45163;-67
2021/12/15 10:25:48;;;;;;;0.70;0.30;;;20.70;32.50;21.30;95103.00;;;;10272094;28;46073;-66
2021/12/15 10:30:59;;;;;;;0.75;0.40;;;20.80;32.50;21.20;95077.00;;;;10271877;28;46091;-66
2021/12/15 10:36:07;;;;;;;0.70;0.38;;;20.80;32.60;21.30;95091.00;;;;10271636;28;45229;-66
2021/12/15 10:41:10;;;;;;;0.65;0.30;;;20.80;32.40;21.30;95097.00;;;;10287940;28;48361;-66
2021/12/15 10:46:28;;;;;;;0.55;0.32;;;20.80;32.40;21.30;95098.00;;;;10304063;28;46600;-66
2021/12/15 10:51:59;;;;;;;1.08;0.40;;;20.80;32.30;21.20;95090.00;;;;10272858;28;45217;-65
2021/12/15 10:57:30;;;;;;;0.85;0.40;;;20.80;32.20;21.20;95086.00;;;;10245950;28;47053;-66
2021/12/15 11:02:32;;;;;;;0.93;0.47;;;20.80;32.10;21.30;95089.00;;;;10247059;28;48024;-64
2021/12/15 11:07:57;;;;;;;0.85;0.30;;;20.80;31.90;21.40;95103.00;;;;10245212;28;47107;-66
2021/12/15 11:13:06;;;;;;;2.10;0.50;;;20.80;32.00;21.20;95092.00;;;;10277271;28;45245;-66
2021/12/15 11:18:20;;;;;;;1.15;0.70;;;20.80;31.30;21.20;95080.00;;;;10285524;28;47214;-66
2021/12/15 11:23:27;;;;;;;0.93;0.65;;;20.80;31.00;21.20;95080.00;;;;10272060;28;45203;-66
2021/12/15 11:28:32;;;;;;;1.65;0.90;;;20.70;30.70;21.20;95082.00;;;;10270105;28;45195;-66
2021/12/15 11:33:41;;;;;;;1.25;0.57;;;20.70;30.40;21.10;95088.00;;;;10277431;28;45191;-66
2021/12/15 11:38:49;;;;;;;1.25;0.80;;;20.70;30.20;21.10;95101.00;;;;10278423;28;45225;-66
2021/12/15 11:43:55;;;;;;;2.13;1.20;;;20.70;28.50;21.10;95091.00;;;;10271967;28;45441;-66
2021/12/15 11:49:17;;;;;;;2.05;1.30;;;20.60;28.80;21.10;95083.00;;;;10307568;28;48015;-63
2021/12/15 11:54:28;;;;;;;1.55;1.02;;;20.60;28.70;21.10;95065.00;;;;10260558;28;47062;-63
2021/12/15 11:59:39;;;;;;;0.88;0.68;;;20.60;28.70;21.10;95068.00;;;;10290875;28;46978;-67
2021/12/15 12:04:46;;;;;;;1.45;0.90;;;20.70;28.70;21.10;95066.00;;;;10276441;28;45207;-67
2021/12/15 12:09:56;;;;;;;1.02;0.80;;;20.70;28.90;21.20;95068.00;;;;10292325;28;46782;-67
2021/12/15 12:14:57;;;;;;;1.52;0.90;;;20.70;29.00;21.20;95060.00;;;;10277776;28;45288;-67
2021/12/15 12:20:16;;;;;;;1.77;0.70;;;20.70;29.00;21.20;95054.00;;;;10291723;28;47321;-68
2021/12/15 12:25:23;;;;;;;1.17;0.63;;;20.70;28.90;21.20;95071.00;;;;10277222;28;46223;-66
2021/12/15 12:30:36;;;;;;;1.02;0.63;;;20.70;28.90;21.20;95053.00;;;;10291918;28;47042;-67
2021/12/15 12:35:53;;;;;;;0.70;0.47;;;20.70;28.90;21.20;95053.00;;;;10275826;28;45220;-67
2021/12/15 12:41:14;;;;;;;0.82;0.57;;;20.70;29.00;21.20;95061.00;;;;10274755;28;45338;-67
2021/12/15 12:46:29;;;;;;;0.60;0.50;;;20.70;28.90;21.20;95059.00;;;;10291371;28;47493;-67
2021/12/15 13:02:41;;;;;;;0.60;0.60;;;20.60;28.90;21.10;95046.00;;;;10275225;28;45206;-67
2021/12/15 13:07:53;;;;;;;0.80;0.68;;;20.60;28.80;21.10;95054.00;;;;10274496;28;45564;-67
2021/12/15 13:13:17;;;;;;;0.75;0.40;;;20.70;28.80;21.20;95042.00;;;;10290860;28;47374;-68
2021/12/15 13:18:18;;;;;;;0.85;0.45;;;20.60;28.70;21.20;95020.00;;;;10275552;28;46697;-68
2021/12/15 13:23:44;;;;;;;1.00;0.60;;;20.70;28.70;21.10;95022.00;;;;10290023;28;47114;-68
2021/12/15 13:28:47;;;;;;;0.98;0.60;;;20.70;28.70;21.20;95029.00;;;;10290323;28;46986;-68
2021/12/15 13:33:57;;;;;;;0.52;0.50;;;20.70;28.60;21.10;95022.00;;;;10290679;28;47217;-67
2021/12/15 13:38:59;;;;;;;0.70;0.50;;;20.70;28.60;21.20;95036.00;;;;10289502;28;46781;-67
2021/12/15 13:44:15;;;;;;;0.73;0.50;;;20.70;28.60;21.10;95034.00;;;;10273348;28;45287;-67
2021/12/15 13:49:42;;;;;;;0.50;0.50;;;20.70;28.70;21.20;95041.00;;;;10305735;28;47400;-67
2021/12/15 13:54:46;;;;;;;0.30;0.30;;;20.70;28.60;21.10;95027.00;;;;10273952;28;45531;-68
2021/12/15 14:00:26;;;;;;;0.85;0.50;;;20.70;28.50;21.20;95035.00;;;;10274262;28;45220;-67
2021/12/15 14:05:32;;;;;;;0.70;0.50;;;20.70;28.50;21.20;95044.00;;;;10255264;28;45607;-67
2021/12/15 14:10:33;;;;;;;0.40;0.40;;;20.70;28.40;21.20;95027.00;;;;10273255;28;45204;-67
2021/12/15 14:15:37;;;;;;;0.50;0.50;;;20.70;28.40;21.20;95050.00;;;;10305881;28;47208;-67
2021/12/15 14:21:13;;;;;;;0.50;0.40;;;20.70;28.40;21.10;95050.00;;;;10271210;28;45381;-67
2021/12/15 14:26:27;;;;;;;0.40;0.40;;;20.70;28.40;21.20;95046.00;;;;10283191;28;45534;-67
2021/12/15 14:31:32;;;;;;;0.35;0.35;;;20.70;28.40;21.20;95043.00;;;;10288856;28;47206;-65
2021/12/15 14:36:53;;;;;;;0.50;0.40;;;20.70;28.40;21.20;95048.00;;;;10287081;28;46625;-66
2021/12/15 14:42:05;;;;;;;0.38;0.35;;;20.70;28.50;21.20;95068.00;;;;10286860;28;48155;-66
2021/12/15 14:47:14;;;;;;;0.47;0.43;;;20.70;28.40;21.20;95070.00;;;;10270992;28;45215;-63
2021/12/15 14:52:37;;;;;;;0.68;0.52;;;20.70;28.50;21.30;95059.00;;;;10248048;28;46443;-66
2021/12/15 14:57:39;;;;;;;0.50;0.50;;;20.80;28.40;21.30;95062.00;;;;10270383;28;48153;-65
2021/12/15 15:02:45;;;;;;;0.95;0.68;;;20.80;28.40;21.30;95066.00;;;;10269207;28;46597;-65
2021/12/15 15:07:57;;;;;;;0.55;0.50;;;20.80;28.30;21.30;95068.00;;;;10278469;28;47015;-66
2021/12/15 15:12:59;;;;;;;0.52;0.50;;;20.80;28.40;21.40;95071.00;;;;10267931;28;47270;-66
2021/12/15 15:18:17;;;;;;;0.70;0.55;;;20.90;28.50;21.40;95067.00;;;;10284401;28;46978;-64
2021/12/15 15:23:31;;;;;;;0.57;0.40;;;20.90;28.50;21.40;95066.00;;;;10269245;28;48377;-64
2021/12/15 15:28:50;;;;;;;0.68;0.50;;;20.90;28.50;21.40;95073.00;;;;10283351;28;47947;-65
2021/12/15 15:33:54;;;;;;;0.55;0.50;;;20.90;28.40;21.40;95064.00;;;;10316015;28;45578;-67
2021/12/15 15:38:57;;;;;;;1.02;0.50;;;20.90;28.30;21.40;95070.00;;;;10299138;28;47276;-67
2021/12/15 15:44:04;;;;;;;1.00;0.52;;;20.90;28.30;21.40;95089.00;;;;10299703;28;47362;-66
2021/12/15 15:49:11;;;;;;;1.38;0.82;;;20.90;28.30;21.40;95073.00;;;;10298136;28;47152;-65
2021/12/15 15:54:17;;;;;;;0.47;0.47;;;20.90;28.20;21.40;95099.00;;;;10283814;28;46966;-65
2021/12/15 15:59:20;;;;;;;;;;;21.00;28.20;21.40;95101.00;;;;10283225;28;46455;-66
2021/12/15 16:04:22;;;;;;;0.60;0.50;;;20.90;28.20;21.50;95100.00;;;;10282757;28;46770;-66
2021/12/15 16:09:28;;;;;;;0.70;0.60;;;21.00;28.10;21.50;95087.00;;;;10282136;28;46779;-66
2021/12/15 16:14:29;;;;;;;2.00;0.80;;;21.00;28.10;21.50;95100.00;;;;10282322;28;45441;-64
2021/12/15 16:19:39;;;;;;;0.90;0.80;;;21.00;28.10;21.40;95097.00;;;;10274896;28;46884;-65
2021/12/15 16:24:40;;;;;;;0.60;0.57;;;21.00;28.10;21.50;95110.00;;;;10275744;28;45426;-66
2021/12/15 16:29:42;;;;;;;1.42;0.60;;;20.90;28.40;21.50;95116.00;;;;10275727;28;45488;-64
2021/12/15 16:34:47;;;;;;;1.08;0.70;;;21.00;28.10;21.40;95129.00;;;;10259522;28;47153;-65
2021/12/15 16:39:51;;;;;;;0.73;0.73;;;20.90;28.10;21.40;95131.00;;;;10273581;28;45984;-65
2021/12/15 16:44:57;;;;;;;0.73;0.73;;;20.90;28.10;21.40;95128.00;;;;10274911;28;45759;-64
2021/12/15 16:49:59;;;;;;;1.13;0.80;;;20.90;28.10;21.40;95135.00;;;;10274514;28;45371;-65
2021/12/15 16:55:09;;;;;;;1.20;1.00;;;20.90;28.10;21.40;95138.00;;;;10275467;28;45316;-64
2021/12/15 17:00:16;;;;;;;1.23;0.80;;;20.90;28.10;21.30;95137.00;;;;10275612;28;46297;-65
2021/12/15 17:05:36;;;;;;;1.65;0.90;;;20.90;28.00;21.40;95143.00;;;;10274375;28;45453;-65
2021/12/15 17:10:45;;;;;;;1.77;1.00;;;20.90;28.00;21.30;95126.00;;;;10274562;28;45175;-65
2021/12/15 17:15:57;;;;;;;1.63;0.80;;;20.80;27.90;21.40;95131.00;;;;10291544;28;47226;-65
2021/12/15 17:21:25;;;;;;;1.38;0.90;;;20.80;27.90;21.30;95147.00;;;;10289578;28;47426;-64
2021/12/15 17:26:44;;;;;;;1.77;1.10;;;20.80;27.90;21.30;95125.00;;;;10270474;28;45290;-64
2021/12/15 17:31:57;;;;;;;1.42;0.90;;;20.90;27.90;21.40;95153.00;;;;10305514;28;47148;-64
2021/12/15 17:37:18;;;;;;;2.15;1.05;;;20.80;27.90;21.40;95146.00;;;;10305176;28;45544;-65
2021/12/15 17:42:27;;;;;;;1.77;0.90;;;20.80;27.90;21.30;95162.00;;;;10306412;28;46321;-64
2021/12/15 17:47:53;;;;;;;1.08;0.95;;;20.80;27.90;21.30;95162.00;;;;10272800;28;47041;-64
2021/12/15 17:53:05;;;;;;;1.23;1.08;;;20.80;27.90;21.30;95146.00;;;;10273773;28;48166;-64
2021/12/15 17:58:12;;;;;;;1.30;1.05;;;20.80;27.90;21.30;95150.00;;;;10305643;28;45477;-63
2021/12/15 18:03:22;;;;;;;1.40;1.00;;;20.80;27.90;21.30;95155.00;;;;10305303;28;47094;-64
2021/12/15 18:08:22;;;;;;;1.48;1.20;;;20.80;27.90;21.30;95151.00;;;;10305332;28;45403;-64
2021/12/15 18:13:27;;;;;;;1.40;1.13;;;20.80;27.80;21.30;95159.00;;;;10305471;28;45709;-65
2021/12/15 18:18:28;;;;;;;1.95;1.10;;;20.80;27.90;21.30;95153.00;;;;10272415;28;45431;-65
2021/12/15 18:23:30;;;;;;;1.98;1.17;;;20.80;27.80;21.40;95144.00;;;;10270713;28;46187;-68
2021/12/15 18:28:31;;;;;;;1.50;1.00;;;20.90;28.00;21.40;95161.00;;;;10293393;28;47361;-66
2021/12/15 18:33:33;;;;;;;1.20;0.90;;;20.90;28.00;21.40;95180.00;;;;10300196;28;45497;-67
2021/12/15 18:38:36;;;;;;;1.25;0.90;;;20.90;28.00;21.30;95192.00;;;;10268673;28;46138;-68
2021/12/15 18:43:40;;;;;;;1.40;1.13;;;20.90;28.00;21.30;95172.00;;;;10264838;28;46594;-68
2021/12/15 18:48:46;;;;;;;2.28;0.80;;;20.90;27.90;21.30;95189.00;;;;10247811;28;47219;-68
2021/12/15 18:53:48;;;;;;;1.42;0.90;;;20.90;27.90;21.40;95181.00;;;;10265068;28;45399;-66
2021/12/15 18:58:51;;;;;;;1.05;0.90;;;20.90;27.80;21.40;95181.00;;;;10232463;28;45714;-65
2021/12/15 19:03:52;;;;;;;1.35;0.80;;;20.90;27.80;21.40;95195.00;;;;10263969;28;46559;-65
2021/12/15 19:08:55;;;;;;;0.60;0.55;;;20.90;27.80;21.40;95188.00;;;;10275785;28;45514;-64
2021/12/15 19:13:56;;;;;;;0.82;0.45;;;20.90;27.80;21.40;95203.00;;;;10266639;28;45267;-64
2021/12/15 19:18:59;;;;;;;0.85;0.65;;;20.90;27.80;21.30;95201.00;;;;10254343;28;46904;-64
2021/12/15 19:24:01;;;;;;;1.10;0.57;;;20.90;27.70;21.40;95217.00;;;;10270389;28;47366;-64
2021/12/15 19:29:05;;;;;;;0.80;0.50;;;20.90;27.70;21.40;95209.00;;;;10271059;28;45569;-64
2021/12/15 19:34:06;;;;;;;0.60;0.60;;;20.90;27.70;21.30;95217.00;;;;10270501;28;45502;-64
2021/12/15 19:39:15;;;;;;;0.70;0.70;;;20.90;27.60;21.30;95214.00;;;;10271007;28;46510;-64
2021/12/15 19:44:20;;;;;;;0.65;0.63;;;20.90;27.60;21.40;95209.00;;;;10270450;28;45424;-64
2021/12/15 19:49:23;;;;;;;0.68;0.57;;;20.80;27.50;21.30;95209.00;;;;10269526;28;47637;-64
2021/12/15 19:54:26;;;;;;;0.70;0.60;;;20.90;27.60;21.30;95229.00;;;;10276777;28;45303;-64
2021/12/15 19:59:27;;;;;;;0.60;0.60;;;20.80;27.50;21.30;95226.00;;;;10277501;28;45432;-64
2021/12/15 20:04:33;;;;;;;0.75;0.50;;;20.80;27.40;21.30;95227.00;;;;10276575;28;47489;-64
2021/12/15 20:09:36;;;;;;;0.50;0.50;;;20.80;27.50;21.30;95230.00;;;;10309986;28;46434;-64
2021/12/15 20:14:37;;;;;;;0.63;0.60;;;20.80;27.40;21.30;95214.00;;;;10278100;28;45536;-64
2021/12/15 20:19:40;;;;;;;0.65;0.60;;;20.80;27.40;21.30;95234.00;;;;10275951;28;45184;-64
2021/12/15 20:24:46;;;;;;;0.80;0.60;;;20.80;27.40;21.30;95228.00;;;;10276214;28;45173;-63
2021/12/15 20:29:49;;;;;;;0.70;0.60;;;20.80;27.40;21.30;95240.00;;;;10274263;28;45346;-64
2021/12/15 20:34:52;;;;;;;0.65;0.55;;;20.80;27.40;21.30;95249.00;;;;10300686;28;47188;-64
2021/12/15 20:39:54;;;;;;;0.65;0.63;;;20.80;27.40;21.30;95250.00;;;;10275830;28;46396;-64
2021/12/15 20:44:55;;;;;;;0.73;0.60;;;20.80;27.40;21.30;95246.00;;;;10275575;28;45183;-65
2021/12/15 20:49:56;;;;;;;1.58;0.60;;;20.80;27.30;21.30;95259.00;;;;10290606;28;48000;-64
2021/12/15 20:54:57;;;;;;;0.80;0.70;;;20.80;27.30;21.30;95282.00;;;;10275107;28;46431;-64
2021/12/15 20:59:57;;;;;;;0.60;0.50;;;20.80;27.40;21.30;95285.00;;;;10274571;28;48195;-65
2021/12/15 21:04:59;;;;;;;0.70;0.50;;;20.80;27.60;21.30;95292.00;;;;10274758;28;45399;-64
2021/12/15 21:09:59;;;;;;;0.70;0.60;;;20.80;27.30;21.30;95286.00;;;;10270059;28;47131;-64
2021/12/15 21:15:01;;;;;;;0.65;0.52;;;20.90;27.40;21.30;95290.00;;;;10273997;28;45418;-64
2021/12/15 21:20:11;;;;;;;0.85;0.70;;;20.80;27.30;21.30;95287.00;;;;10274240;28;45343;-63
2021/12/15 21:25:13;;;;;;;0.40;0.40;;;20.80;27.30;21.30;95271.00;;;;10275812;28;45174;-64
2021/12/15 21:30:28;;;;;;;0.93;0.80;;;20.80;27.30;21.20;95285.00;;;;10273284;28;48074;-63
2021/12/15 21:35:32;;;;;;;0.60;0.60;;;20.80;27.30;21.20;95274.00;;;;10273097;28;47165;-63
2021/12/15 21:40:37;;;;;;;0.77;0.60;;;20.70;27.30;21.20;95274.00;;;;10273386;28;47012;-63
2021/12/15 21:45:45;;;;;;;0.70;0.60;;;20.70;27.20;21.10;95287.00;;;;10273614;28;45227;-63
2021/12/15 21:50:46;;;;;;;0.65;0.57;;;20.70;27.20;21.10;95305.00;;;;10273282;28;46844;-64
2021/12/15 21:55:48;;;;;;;0.57;0.52;;;20.70;27.30;21.10;95298.00;;;;10274553;28;45626;-63
2021/12/15 22:00:52;;;;;;;0.60;0.50;;;20.70;27.20;21.10;95293.00;;;;10272865;28;45189;-63
2021/12/15 22:05:55;;;;;;;0.82;0.70;;;20.70;27.30;21.10;95293.00;;;;10272368;28;47080;-64
2021/12/15 22:10:56;;;;;;;0.70;0.50;;;20.60;27.30;21.10;95296.00;;;;10272624;28;45273;-64
2021/12/15 22:16:03;;;;;;;0.55;0.55;;;20.60;27.30;21.00;95305.00;;;;10271715;28;46432;-64
2021/12/15 22:21:04;;;;;;;0.90;0.65;;;20.60;27.20;21.00;95295.00;;;;10272065;28;47402;-64
2021/12/15 22:26:05;;;;;;;0.93;0.50;;;20.60;27.30;21.00;95295.00;;;;10272094;28;45204;-63
2021/12/15 22:31:07;;;;;;;0.57;0.50;;;20.60;27.20;21.00;95317.00;;;;10305346;28;45112;-63
2021/12/15 22:36:08;;;;;;;0.35;0.32;;;20.50;27.20;21.00;95315.00;;;;10304440;28;45196;-63
2021/12/15 22:41:15;;;;;;;0.63;0.60;;;20.50;27.20;20.90;95321.00;;;;10273141;28;45294;-63
2021/12/15 22:46:17;;;;;;;;;;;20.50;27.20;20.90;95321.00;;;;10272334;28;45224;-63
2021/12/15 22:51:18;;;;;;;0.47;0.47;;;20.50;27.20;20.90;95316.00;;;;10272283;28;45469;-63
2021/12/15 22:56:19;;;;;;;0.45;0.30;;;20.50;27.10;20.90;95336.00;;;;10271382;28;45224;-63
2021/12/15 23:01:43;;;;;;;0.45;0.40;;;20.50;27.10;20.90;95349.00;;;;10271757;28;46588;-63
2021/12/15 23:06:51;;;;;;;0.43;0.40;;;20.40;27.10;20.90;95337.00;;;;10270663;28;47145;-64
2021/12/15 23:17:11;;;;;;;0.68;0.50;;;20.40;27.10;20.90;95345.00;;;;10270716;28;45889;-63
2021/12/15 23:22:12;;;;;;;0.85;0.40;;;20.40;27.10;20.90;95347.00;;;;10270777;28;45253;-63
2021/12/15 23:27:13;;;;;;;0.40;0.40;;;20.40;27.10;20.80;95314.00;;;;10275648;28;47986;-63
2021/12/15 23:32:22;;;;;;;0.45;0.40;;;20.40;27.10;20.80;95336.00;;;;10278310;28;45198;-64
2021/12/15 23:37:22;;;;;;;0.30;0.30;;;20.40;27.10;20.80;95346.00;;;;10276752;28;47592;-64
